createdAt,value
2018-08-11T00:02:27.702Z,99.90
2018-08-11T00:04:55.825Z,99.90
2018-08-11T00:07:23.887Z,99.90
2018-08-11T00:09:51.974Z,99.90
2018-08-11T00:12:20.090Z,99.90
2018-08-11T00:14:48.178Z,99.90
2018-08-11T00:17:16.234Z,99.90
2018-08-11T00:19:44.306Z,99.90
2018-08-11T00:22:12.426Z,99.90
2018-08-11T00:24:40.506Z,99.90
2018-08-11T00:27:08.578Z,99.90
2018-08-11T00:29:36.658Z,99.90
2018-08-11T00:32:04.742Z,99.90
2018-08-11T00:34:32.810Z,99.90
2018-08-11T00:37:00.935Z,99.90
2018-08-11T00:39:28.993Z,99.90
2018-08-11T00:41:57.052Z,99.90
2018-08-11T00:44:25.123Z,99.90
2018-08-11T00:46:53.182Z,99.90
2018-08-11T00:49:21.275Z,99.90
2018-08-11T00:51:49.330Z,99.90
2018-08-11T00:54:17.410Z,99.90
2018-08-11T00:56:45.495Z,99.90
2018-08-11T00:59:13.570Z,99.90
2018-08-11T01:01:41.668Z,99.90
2018-08-11T01:04:09.758Z,99.90
2018-08-11T01:06:37.839Z,99.90
2018-08-11T01:09:08.487Z,99.90
2018-08-11T01:11:36.602Z,99.90
2018-08-11T01:14:04.886Z,99.90
2018-08-11T01:16:33.001Z,99.90
2018-08-11T01:19:01.087Z,99.90
2018-08-11T01:21:29.154Z,99.90
2018-08-11T01:23:57.235Z,99.90
2018-08-11T01:26:25.393Z,99.90
2018-08-11T01:28:53.465Z,99.90
2018-08-11T01:31:21.582Z,99.90
2018-08-11T01:33:49.650Z,99.90
2018-08-11T01:36:17.791Z,99.90
2018-08-11T01:38:45.875Z,99.90
2018-08-11T01:41:13.954Z,99.90
2018-08-11T01:43:42.038Z,99.90
2018-08-11T01:46:10.148Z,99.90
2018-08-11T01:48:38.207Z,99.90
2018-08-11T01:51:06.322Z,99.90
2018-08-11T01:53:34.442Z,99.90
2018-08-11T01:56:02.556Z,99.90
2018-08-11T01:58:30.631Z,99.90
2018-08-11T02:00:58.710Z,99.90
2018-08-11T02:03:26.782Z,99.90
2018-08-11T02:05:54.854Z,99.90
2018-08-11T02:08:22.958Z,99.90
2018-08-11T02:10:51.018Z,99.90
2018-08-11T02:13:19.139Z,99.90
2018-08-11T02:15:47.178Z,99.90
2018-08-11T02:18:15.258Z,99.90
2018-08-11T02:20:43.363Z,99.90
2018-08-11T02:23:11.534Z,99.90
2018-08-11T02:25:39.643Z,99.90
2018-08-11T02:28:07.734Z,99.90
2018-08-11T02:30:36.073Z,99.90
2018-08-11T02:33:04.162Z,99.90
2018-08-11T02:35:32.242Z,99.90
2018-08-11T02:38:00.306Z,99.90
2018-08-11T02:40:28.566Z,99.90
2018-08-11T02:42:56.654Z,99.90
2018-08-11T02:45:24.725Z,99.90
2018-08-11T02:47:52.811Z,99.90
2018-08-11T02:50:20.938Z,99.90
2018-08-11T02:52:49.051Z,99.90
2018-08-11T02:55:17.122Z,99.90
2018-08-11T02:57:45.192Z,99.90
2018-08-11T03:00:13.398Z,99.90
2018-08-11T03:02:41.565Z,99.90
2018-08-11T03:05:09.679Z,99.90
2018-08-11T03:07:38.215Z,99.90
2018-08-11T03:10:08.003Z,99.90
2018-08-11T03:12:36.098Z,99.90
2018-08-11T03:15:05.324Z,99.90
2018-08-11T03:17:33.437Z,99.90
2018-08-11T03:20:01.535Z,99.90
2018-08-11T03:22:29.638Z,99.90
2018-08-11T03:24:57.699Z,99.90
2018-08-11T03:27:25.778Z,99.90
2018-08-11T03:29:53.880Z,99.90
2018-08-11T03:32:22.052Z,99.90
2018-08-11T03:34:50.222Z,99.90
2018-08-11T03:37:18.314Z,99.90
2018-08-11T03:39:46.409Z,99.90
2018-08-11T03:42:14.495Z,99.90
2018-08-11T03:44:42.611Z,99.90
2018-08-11T03:47:10.744Z,99.90
2018-08-11T03:49:38.816Z,99.90
2018-08-11T03:52:06.934Z,99.90
2018-08-11T03:54:35.126Z,99.90
2018-08-11T03:57:03.310Z,99.90
2018-08-11T03:59:31.382Z,99.90
2018-08-11T04:01:59.484Z,99.90
2018-08-11T04:04:27.561Z,99.90
2018-08-11T04:06:55.678Z,99.90
2018-08-11T04:09:23.797Z,99.90
2018-08-11T04:11:51.878Z,99.90
2018-08-11T04:14:19.987Z,99.90
2018-08-11T04:16:48.027Z,99.90
2018-08-11T04:19:16.250Z,99.90
2018-08-11T04:21:44.326Z,99.90
2018-08-11T04:24:12.398Z,99.90
2018-08-11T04:26:40.574Z,99.90
2018-08-11T04:29:09.260Z,99.90
2018-08-11T04:31:37.758Z,99.90
2018-08-11T04:34:06.263Z,99.90
2018-08-11T04:36:34.542Z,99.90
2018-08-11T04:39:02.597Z,99.90
2018-08-11T04:41:30.744Z,99.90
2018-08-11T04:43:58.806Z,99.90
2018-08-11T04:46:26.994Z,99.90
2018-08-11T04:48:55.080Z,99.90
2018-08-11T04:51:23.192Z,99.90
2018-08-11T04:53:51.411Z,99.90
2018-08-11T04:56:19.550Z,99.90
2018-08-11T04:58:47.660Z,99.90
2018-08-11T05:01:16.047Z,99.90
2018-08-11T05:03:44.161Z,99.90
2018-08-11T05:06:12.261Z,99.90
2018-08-11T05:08:40.362Z,99.90
2018-08-11T05:11:08.487Z,99.90
2018-08-11T05:13:36.614Z,99.90
2018-08-11T05:16:04.883Z,99.90
2018-08-11T05:18:32.990Z,99.90
2018-08-11T05:21:01.123Z,99.90
2018-08-11T05:23:29.206Z,99.90
2018-08-11T05:25:57.379Z,99.90
2018-08-11T05:28:25.467Z,99.90
2018-08-11T05:30:53.579Z,99.90
2018-08-11T05:33:21.770Z,99.90
2018-08-11T05:35:49.848Z,99.90
2018-08-11T05:38:17.934Z,99.90
2018-08-11T05:40:45.993Z,99.90
2018-08-11T05:43:14.079Z,99.90
2018-08-11T05:45:42.247Z,99.90
2018-08-11T05:48:10.314Z,99.90
2018-08-11T05:50:38.438Z,99.90
2018-08-11T05:53:06.610Z,99.90
2018-08-11T05:55:34.719Z,99.90
2018-08-11T05:58:02.818Z,99.90
2018-08-11T06:00:30.887Z,99.90
2018-08-11T06:02:58.958Z,99.90
2018-08-11T06:05:27.033Z,99.90
2018-08-11T06:07:55.164Z,99.90
2018-08-11T06:10:23.325Z,99.90
2018-08-11T06:12:51.374Z,99.90
2018-08-11T06:15:19.538Z,99.90
2018-08-11T06:17:47.633Z,99.90
2018-08-11T06:20:15.754Z,99.90
2018-08-11T06:22:43.843Z,99.90
2018-08-11T06:25:11.930Z,99.90
2018-08-11T06:27:40.478Z,99.90
2018-08-11T06:30:09.582Z,99.90
2018-08-11T06:32:37.870Z,99.90
2018-08-11T06:35:06.483Z,99.90
2018-08-11T06:37:34.630Z,99.90
2018-08-11T06:40:02.722Z,99.90
2018-08-11T06:42:30.772Z,99.90
2018-08-11T06:44:58.834Z,99.90
2018-08-11T06:47:26.926Z,99.90
2018-08-11T06:49:54.986Z,99.90
2018-08-11T06:52:23.092Z,99.90
2018-08-11T06:54:51.154Z,99.90
2018-08-11T06:57:19.282Z,99.90
2018-08-11T06:59:47.467Z,99.90
2018-08-11T07:02:15.574Z,99.90
2018-08-11T07:04:43.750Z,99.90
2018-08-11T07:07:11.856Z,99.90
2018-08-11T07:09:39.955Z,99.90
2018-08-11T07:12:08.371Z,99.90
2018-08-11T07:14:36.577Z,99.90
2018-08-11T07:17:04.706Z,99.90
2018-08-11T07:19:32.814Z,99.90
2018-08-11T07:22:00.905Z,99.90
2018-08-11T07:24:28.978Z,99.90
2018-08-11T07:26:57.060Z,99.90
2018-08-11T07:29:25.237Z,99.90
2018-08-11T07:31:53.348Z,99.90
2018-08-11T07:34:21.664Z,99.90
2018-08-11T07:36:50.581Z,99.90
2018-08-11T07:39:18.698Z,99.90
2018-08-11T07:41:46.772Z,99.90
2018-08-11T07:44:14.838Z,99.80
2018-08-11T07:46:42.910Z,99.10
2018-08-11T07:49:10.997Z,99.10
2018-08-11T07:51:39.076Z,99.30
2018-08-11T07:54:07.151Z,98.80
2018-08-11T07:56:35.234Z,97.70
2018-08-11T07:59:03.319Z,97.80
2018-08-11T08:01:31.505Z,96.80
2018-08-11T08:03:59.570Z,96.70
2018-08-11T08:06:27.671Z,96.00
2018-08-11T08:08:55.734Z,95.70
2018-08-11T08:11:23.815Z,95.50
2018-08-11T08:13:51.904Z,95.20
2018-08-11T08:16:20.023Z,94.60
2018-08-11T08:18:48.104Z,94.00
2018-08-11T08:21:16.184Z,92.90
2018-08-11T08:23:44.266Z,92.20
2018-08-11T08:26:12.387Z,90.60
2018-08-11T08:28:40.428Z,88.60
2018-08-11T08:31:08.521Z,86.00
2018-08-11T08:33:36.692Z,86.00
2018-08-11T08:36:04.882Z,85.70
2018-08-11T08:38:32.950Z,84.90
2018-08-11T08:41:01.028Z,82.70
2018-08-11T08:43:29.101Z,81.50
2018-08-11T08:45:57.196Z,80.60
2018-08-11T08:48:25.283Z,81.30
2018-08-11T08:50:53.427Z,80.20
2018-08-11T08:53:21.618Z,79.30
2018-08-11T08:55:49.602Z,77.20
2018-08-11T08:58:17.683Z,74.60
2018-08-11T09:00:45.774Z,74.00
2018-08-11T09:03:13.882Z,72.10
2018-08-11T09:05:41.954Z,71.90
2018-08-11T09:08:10.230Z,70.40
2018-08-11T09:10:38.413Z,70.30
2018-08-11T09:13:06.694Z,70.40
2018-08-11T09:15:34.802Z,68.50
2018-08-11T09:18:03.094Z,68.40
2018-08-11T09:20:31.165Z,67.90
2018-08-11T09:22:59.304Z,66.80
2018-08-11T09:25:27.426Z,66.70
2018-08-11T09:27:55.514Z,66.30
2018-08-11T09:30:23.630Z,66.00
2018-08-11T09:32:51.756Z,65.00
2018-08-11T09:35:19.842Z,65.30
2018-08-11T09:37:47.942Z,65.00
2018-08-11T09:40:16.039Z,65.80
2018-08-11T09:42:44.117Z,65.50
2018-08-11T09:45:12.235Z,66.00
2018-08-11T09:47:40.415Z,65.60
2018-08-11T09:50:08.590Z,65.30
2018-08-11T09:52:36.694Z,65.30
2018-08-11T09:55:04.775Z,65.10
2018-08-11T09:57:32.855Z,64.90
2018-08-11T10:00:00.944Z,65.40
2018-08-11T10:02:29.043Z,64.30
2018-08-11T10:04:57.159Z,64.10
2018-08-11T10:07:25.198Z,64.30
2018-08-11T10:09:53.271Z,62.60
2018-08-11T10:12:21.373Z,62.10
2018-08-11T10:14:49.449Z,60.20
2018-08-11T10:17:17.527Z,59.70
2018-08-11T10:19:45.611Z,59.10
2018-08-11T10:22:13.687Z,58.60
2018-08-11T10:24:41.778Z,57.60
2018-08-11T10:27:09.903Z,57.20
2018-08-11T10:29:38.059Z,57.40
2018-08-11T10:32:06.178Z,56.90
2018-08-11T10:34:34.258Z,57.10
2018-08-11T10:37:02.351Z,57.50
2018-08-11T10:39:30.617Z,58.70
2018-08-11T10:41:58.709Z,57.60
2018-08-11T10:44:26.800Z,56.10
2018-08-11T10:46:54.861Z,55.10
2018-08-11T10:49:22.933Z,55.20
2018-08-11T10:51:51.034Z,54.80
2018-08-11T10:54:19.164Z,54.40
2018-08-11T10:56:47.470Z,55.20
2018-08-11T10:59:15.636Z,56.00
2018-08-11T11:01:43.718Z,56.30
2018-08-11T11:04:11.819Z,55.80
2018-08-11T11:06:40.071Z,56.00
2018-08-11T11:09:08.941Z,55.50
2018-08-11T11:11:37.285Z,55.00
2018-08-11T11:14:05.347Z,54.80
2018-08-11T11:16:33.605Z,55.30
2018-08-11T11:19:01.713Z,55.80
2018-08-11T11:21:29.806Z,56.50
2018-08-11T11:23:58.081Z,56.40
2018-08-11T11:26:26.142Z,55.30
2018-08-11T11:28:54.726Z,54.80
2018-08-11T11:31:22.814Z,54.80
2018-08-11T11:33:50.940Z,54.90
2018-08-11T11:36:19.030Z,54.70
2018-08-11T11:38:47.170Z,53.70
2018-08-11T11:41:15.399Z,52.70
2018-08-11T11:43:43.478Z,52.60
2018-08-11T11:46:11.567Z,53.20
2018-08-11T11:48:39.670Z,52.10
2018-08-11T11:51:07.778Z,52.10
2018-08-11T11:53:35.872Z,52.10
2018-08-11T11:56:03.983Z,52.00
2018-08-11T11:58:32.095Z,52.00
2018-08-11T12:01:00.256Z,52.50
2018-08-11T12:03:28.359Z,52.20
2018-08-11T12:05:56.593Z,52.30
2018-08-11T12:08:24.510Z,52.20
2018-08-11T12:10:52.578Z,52.50
2018-08-11T12:13:20.706Z,53.50
2018-08-11T12:15:48.811Z,53.60
2018-08-11T12:18:16.874Z,53.30
2018-08-11T12:20:44.964Z,53.90
2018-08-11T12:23:13.046Z,54.40
2018-08-11T12:25:41.116Z,54.00
2018-08-11T12:28:09.238Z,54.00
2018-08-11T12:30:37.282Z,53.20
2018-08-11T12:33:05.367Z,53.70
2018-08-11T12:35:33.494Z,52.70
2018-08-11T12:38:01.564Z,51.40
2018-08-11T12:40:29.770Z,51.20
2018-08-11T12:42:57.943Z,51.70
2018-08-11T12:45:26.067Z,52.70
2018-08-11T12:47:54.139Z,52.50
2018-08-11T12:50:22.262Z,52.50
2018-08-11T12:52:50.350Z,52.80
2018-08-11T12:55:18.442Z,52.30
2018-08-11T12:57:46.773Z,51.90
2018-08-11T13:00:14.885Z,51.40
2018-08-11T13:02:42.966Z,51.40
2018-08-11T13:05:11.055Z,51.20
2018-08-11T13:07:39.130Z,50.80
2018-08-11T13:10:07.277Z,50.10
2018-08-11T13:12:35.386Z,50.90
2018-08-11T13:15:03.543Z,51.50
2018-08-11T13:17:31.606Z,51.20
2018-08-11T13:19:59.686Z,51.00
2018-08-11T13:22:27.809Z,49.70
2018-08-11T13:24:55.930Z,49.20
2018-08-11T13:27:24.071Z,48.20
2018-08-11T13:29:52.158Z,47.80
2018-08-11T13:32:20.321Z,47.70
2018-08-11T13:34:48.475Z,47.30
2018-08-11T13:37:16.554Z,46.40
2018-08-11T13:39:48.494Z,46.00
2018-08-11T13:42:16.562Z,45.30
2018-08-11T13:44:44.656Z,45.60
2018-08-11T13:47:12.726Z,46.10
2018-08-11T13:49:40.837Z,45.30
2018-08-11T13:52:08.902Z,45.20
2018-08-11T13:54:36.974Z,45.70
2018-08-11T13:57:05.339Z,45.00
2018-08-11T13:59:33.399Z,45.90
2018-08-11T14:02:01.466Z,45.90
2018-08-11T14:04:29.542Z,45.30
2018-08-11T14:06:57.667Z,45.70
2018-08-11T14:09:25.809Z,46.10
2018-08-11T14:11:53.907Z,46.90
2018-08-11T14:14:22.058Z,47.20
2018-08-11T14:16:50.130Z,47.40
2018-08-11T14:19:18.299Z,47.60
2018-08-11T14:21:46.386Z,47.00
2018-08-11T14:24:14.558Z,46.80
2018-08-11T14:26:42.634Z,46.40
2018-08-11T14:29:10.710Z,45.60
2018-08-11T14:31:38.798Z,45.40
2018-08-11T14:34:06.973Z,45.10
2018-08-11T14:36:35.032Z,44.90
2018-08-11T14:39:03.206Z,44.70
2018-08-11T14:41:31.274Z,43.10
2018-08-11T14:43:59.360Z,44.10
2018-08-11T14:46:27.450Z,44.30
2018-08-11T14:48:55.550Z,44.60
2018-08-11T14:51:23.647Z,44.80
2018-08-11T14:53:51.735Z,45.20
2018-08-11T14:56:19.997Z,45.40
2018-08-11T14:58:47.966Z,45.20
2018-08-11T15:01:16.078Z,44.80
2018-08-11T15:03:44.218Z,45.10
2018-08-11T15:06:12.310Z,45.10
2018-08-11T15:08:40.372Z,44.70
2018-08-11T15:11:08.482Z,44.40
2018-08-11T15:13:36.967Z,43.90
2018-08-11T15:16:05.083Z,43.40
2018-08-11T15:18:33.162Z,44.10
2018-08-11T15:21:01.247Z,44.50
2018-08-11T15:23:29.327Z,44.00
2018-08-11T15:25:57.440Z,43.40
2018-08-11T15:28:25.519Z,43.40
2018-08-11T15:30:53.619Z,43.00
2018-08-11T15:33:21.790Z,42.60
2018-08-11T15:35:49.815Z,42.50
2018-08-11T15:38:17.929Z,43.00
2018-08-11T15:40:45.992Z,43.40
2018-08-11T15:43:14.060Z,43.70
2018-08-11T15:45:42.130Z,43.20
2018-08-11T15:48:10.365Z,42.60
2018-08-11T15:50:38.418Z,41.40
2018-08-11T15:53:06.634Z,40.90
2018-08-11T15:55:34.769Z,40.50
2018-08-11T15:58:02.893Z,40.40
2018-08-11T16:00:30.985Z,39.70
2018-08-11T16:02:59.187Z,39.10
2018-08-11T16:05:27.261Z,39.30
2018-08-11T16:07:55.336Z,38.50
2018-08-11T16:10:23.426Z,37.80
2018-08-11T16:12:51.583Z,37.40
2018-08-11T16:15:19.666Z,36.30
2018-08-11T16:17:47.750Z,36.70
2018-08-11T16:20:15.870Z,36.80
2018-08-11T16:22:44.406Z,35.90
2018-08-11T16:25:12.503Z,36.80
2018-08-11T16:27:40.601Z,38.20
2018-08-11T16:30:10.220Z,38.20
2018-08-11T16:32:38.478Z,38.30
2018-08-11T16:35:06.747Z,38.30
2018-08-11T16:37:35.005Z,38.50
2018-08-11T16:40:03.108Z,38.80
2018-08-11T16:42:31.269Z,39.50
2018-08-11T16:44:59.357Z,40.80
2018-08-11T16:47:27.442Z,42.00
2018-08-11T16:49:55.546Z,43.00
2018-08-11T16:52:23.623Z,43.60
2018-08-11T16:54:51.726Z,44.60
2018-08-11T16:57:19.870Z,44.60
2018-08-11T16:59:47.992Z,45.80
2018-08-11T17:02:16.083Z,45.60
2018-08-11T17:04:44.143Z,45.70
2018-08-11T17:07:12.393Z,46.00
2018-08-11T17:09:40.558Z,46.30
2018-08-11T17:12:08.756Z,46.80
2018-08-11T17:14:36.899Z,47.20
2018-08-11T17:17:05.116Z,47.70
2018-08-11T17:19:33.216Z,48.10
2018-08-11T17:22:01.291Z,48.20
2018-08-11T17:24:29.413Z,48.30
2018-08-11T17:26:57.495Z,48.50
2018-08-11T17:29:25.640Z,48.90
2018-08-11T17:31:53.854Z,49.00
2018-08-11T17:34:21.937Z,48.90
2018-08-11T17:36:50.032Z,48.70
2018-08-11T17:39:18.126Z,48.70
2018-08-11T17:41:46.264Z,49.10
2018-08-11T17:44:14.326Z,49.30
2018-08-11T17:46:42.402Z,49.50
2018-08-11T17:49:10.600Z,49.70
2018-08-11T17:51:38.662Z,49.30
2018-08-11T17:54:07.073Z,49.00
2018-08-11T17:56:35.130Z,48.80
2018-08-11T17:59:03.353Z,49.00
2018-08-11T18:01:31.431Z,49.10
2018-08-11T18:03:59.506Z,49.50
2018-08-11T18:06:27.888Z,49.60
2018-08-11T18:08:56.055Z,49.70
2018-08-11T18:11:24.130Z,49.80
2018-08-11T18:13:52.235Z,50.00
2018-08-11T18:16:20.446Z,50.20
2018-08-11T18:18:48.821Z,50.50
2018-08-11T18:21:17.035Z,50.70
2018-08-11T18:23:45.180Z,50.90
2018-08-11T18:26:13.453Z,51.20
2018-08-11T18:28:41.618Z,51.40
2018-08-11T18:31:09.718Z,51.40
2018-08-11T18:33:37.964Z,51.40
2018-08-11T18:36:06.283Z,51.60
2018-08-11T18:38:34.418Z,51.70
2018-08-11T18:41:02.466Z,51.90
2018-08-11T18:43:30.689Z,52.10
2018-08-11T18:45:58.666Z,52.10
2018-08-11T18:48:26.752Z,52.50
2018-08-11T18:50:54.826Z,52.50
2018-08-11T18:53:22.930Z,52.70
2018-08-11T18:55:51.026Z,53.10
2018-08-11T18:58:19.123Z,53.40
2018-08-11T19:00:47.219Z,53.60
2018-08-11T19:03:15.298Z,53.80
2018-08-11T19:05:43.372Z,54.20
2018-08-11T19:08:11.443Z,54.50
2018-08-11T19:10:39.574Z,54.80
2018-08-11T19:13:07.692Z,55.10
2018-08-11T19:15:35.739Z,55.40
2018-08-11T19:18:04.258Z,55.60
2018-08-11T19:20:32.342Z,56.40
2018-08-11T19:23:00.506Z,56.50
2018-08-11T19:25:28.653Z,56.80
2018-08-11T19:27:56.690Z,57.10
2018-08-11T19:30:24.780Z,57.10
2018-08-11T19:32:52.862Z,57.30
2018-08-11T19:35:20.962Z,57.70
2018-08-11T19:37:49.035Z,58.10
2018-08-11T19:40:17.118Z,58.50
2018-08-11T19:42:45.186Z,58.80
2018-08-11T19:45:13.282Z,59.30
2018-08-11T19:47:41.706Z,59.70
2018-08-11T19:50:10.899Z,59.90
2018-08-11T19:52:39.326Z,60.20
2018-08-11T19:55:07.940Z,60.60
2018-08-11T19:57:36.047Z,60.90
2018-08-11T20:00:07.239Z,62.20
2018-08-11T20:02:35.409Z,61.80
2018-08-11T20:05:03.822Z,63.60
2018-08-11T20:07:31.899Z,63.90
2018-08-11T20:10:00.039Z,65.70
2018-08-11T20:13:57.628Z,65.70
2018-08-11T20:16:25.786Z,65.90
2018-08-11T20:18:54.030Z,66.00
2018-08-11T20:21:22.073Z,66.20
2018-08-11T20:23:50.234Z,67.10
2018-08-11T20:26:18.363Z,66.90
2018-08-11T20:28:46.523Z,67.10
2018-08-11T20:31:14.674Z,67.30
2018-08-11T20:33:42.824Z,67.70
2018-08-11T20:36:10.878Z,68.20
2018-08-11T20:38:39.006Z,68.60
2018-08-11T20:41:07.549Z,69.30
2018-08-11T20:43:36.393Z,69.70
2018-08-11T20:46:06.109Z,70.10
2018-08-11T20:48:34.290Z,70.80
2018-08-11T20:51:02.401Z,71.30
2018-08-11T20:53:30.580Z,73.10
2018-08-11T20:55:58.801Z,73.20
2018-08-11T20:58:27.165Z,74.50
2018-08-11T21:00:55.295Z,74.30
2018-08-11T21:03:23.372Z,74.30
2018-08-11T21:05:51.520Z,75.20
2018-08-11T21:08:19.820Z,74.80
2018-08-11T21:10:47.958Z,75.30
2018-08-11T21:13:16.134Z,75.70
2018-08-11T21:15:44.245Z,76.10
2018-08-11T21:18:12.624Z,76.30
2018-08-11T21:20:40.730Z,76.70
2018-08-11T21:23:09.187Z,77.10
2018-08-11T21:25:37.312Z,77.50
2018-08-11T21:28:05.610Z,77.80
2018-08-11T21:30:33.710Z,78.30
2018-08-11T21:33:01.808Z,78.90
2018-08-11T21:35:30.270Z,79.40
2018-08-11T21:37:58.697Z,79.80
2018-08-11T21:40:26.830Z,80.40
2018-08-11T21:42:55.023Z,82.60
2018-08-11T21:45:23.100Z,82.50
2018-08-11T21:47:51.161Z,82.30
2018-08-11T21:50:19.644Z,82.70
2018-08-11T21:52:48.795Z,83.00
2018-08-11T21:55:16.892Z,83.10
2018-08-11T21:57:45.142Z,84.00
2018-08-11T22:00:26.861Z,83.50
2018-08-11T22:02:55.075Z,83.90
2018-08-11T22:05:24.093Z,84.20
2018-08-11T22:07:52.154Z,84.70
2018-08-11T22:10:20.644Z,85.20
2018-08-11T22:12:48.711Z,85.60
2018-08-11T22:15:18.968Z,86.00
2018-08-11T22:17:47.402Z,86.70
2018-08-11T22:20:15.503Z,87.10
2018-08-11T22:22:44.261Z,87.30
2018-08-11T22:25:13.497Z,88.30
2018-08-11T22:27:41.910Z,89.00
2018-08-11T22:30:10.377Z,89.30
2018-08-11T22:32:38.445Z,90.30
2018-08-11T22:35:09.090Z,90.60
2018-08-11T22:37:37.178Z,90.30
2018-08-11T22:40:05.756Z,90.40
2018-08-11T22:42:34.978Z,90.50
2018-08-11T22:45:03.210Z,90.60
2018-08-11T22:47:31.332Z,90.80
2018-08-11T22:49:59.394Z,90.90
2018-08-11T22:52:27.478Z,91.10
2018-08-11T22:54:55.574Z,91.40
2018-08-11T22:57:23.676Z,91.60
2018-08-11T22:59:51.766Z,91.90
2018-08-11T23:02:19.870Z,91.70
2018-08-11T23:04:47.934Z,91.80
2018-08-11T23:07:16.007Z,91.90
2018-08-11T23:09:44.078Z,92.00
2018-08-11T23:12:12.214Z,92.20
2018-08-11T23:14:40.297Z,92.50
2018-08-11T23:17:08.866Z,92.60
2018-08-11T23:19:36.970Z,93.20
2018-08-11T23:22:05.128Z,93.30
2018-08-11T23:24:33.186Z,93.50
2018-08-11T23:27:01.270Z,93.50
2018-08-11T23:29:29.445Z,93.50
2018-08-11T23:31:57.506Z,93.60
2018-08-11T23:34:25.581Z,93.70
2018-08-11T23:36:53.686Z,93.80
2018-08-11T23:39:21.762Z,93.90
2018-08-11T23:41:49.833Z,94.00
2018-08-11T23:44:17.890Z,94.10
2018-08-11T23:46:45.962Z,94.20
2018-08-11T23:49:14.075Z,94.50
2018-08-11T23:51:42.151Z,94.60
2018-08-11T23:54:10.257Z,94.80
2018-08-11T23:56:38.346Z,95.10
2018-08-11T23:59:06.411Z,95.10
